Time;durP1;ratioP1;P1;durP2;ratioP2;P2;SDS_P1;SDS_P2;PMS_P1;PMS_P2;Temp;Humidity;BMP_temperature;BMP_pressure;BME280_temperature;BME280_humidity;BME280_pressure;Samples;Min_cycle;Max_cycle;Signal;HPM_P1;HPM_P2
2022/07/04 00:00:28;;;;;;;5.57;2.72;;;23.40;72.10;;;;;;5032446;28;20034;-69
2022/07/04 00:02:53;;;;;;;4.22;2.92;;;23.40;71.90;;;;;;5036580;28;20021;-70
2022/07/04 00:05:19;;;;;;;4.85;3.20;;;23.30;72.50;;;;;;5032311;28;20119;-70
2022/07/04 00:07:47;;;;;;;4.72;3.00;;;23.20;72.90;;;;;;5031246;28;20113;-70
2022/07/04 00:10:15;;;;;;;5.28;3.42;;;23.10;73.40;;;;;;5031949;28;20072;-69
2022/07/04 00:12:41;;;;;;;4.30;2.80;;;23.10;73.30;;;;;;5032199;28;20021;-70
2022/07/04 00:15:08;;;;;;;4.28;2.72;;;23.00;73.90;;;;;;5031611;28;20132;-70
2022/07/04 00:17:34;;;;;;;5.70;2.92;;;23.00;73.80;;;;;;5029284;28;20025;-70
2022/07/04 00:20:00;;;;;;;6.40;2.92;;;23.00;74.40;;;;;;5030326;28;20033;-70
2022/07/04 00:22:25;;;;;;;4.45;2.70;;;22.90;74.60;;;;;;5031816;28;20029;-70
2022/07/04 00:24:51;;;;;;;4.93;2.78;;;22.90;74.80;;;;;;5031644;28;20029;-70
2022/07/04 00:27:17;;;;;;;4.95;2.70;;;22.80;75.00;;;;;;5019528;28;20022;-70
2022/07/04 00:29:42;;;;;;;3.58;2.42;;;22.80;75.00;;;;;;5027057;28;20416;-70
2022/07/04 00:32:08;;;;;;;3.85;2.22;;;22.70;75.10;;;;;;5023872;28;20462;-70
2022/07/04 00:34:34;;;;;;;3.53;2.10;;;22.70;75.50;;;;;;5025950;28;20030;-70
2022/07/04 00:36:59;;;;;;;4.38;2.50;;;22.60;75.30;;;;;;5013497;28;20026;-70
2022/07/04 00:39:25;;;;;;;3.22;2.30;;;22.60;75.90;;;;;;5023272;28;20037;-69
2022/07/04 00:41:51;;;;;;;3.65;2.50;;;22.60;76.20;;;;;;5013013;28;20080;-70
2022/07/04 00:44:17;;;;;;;4.10;2.70;;;22.50;76.20;;;;;;5023830;28;20496;-69
2022/07/04 00:46:44;;;;;;;4.82;2.55;;;22.50;76.90;;;;;;5028696;28;20025;-69
2022/07/04 00:49:10;;;;;;;2.75;2.42;;;22.40;76.80;;;;;;5030805;28;20056;-69
2022/07/04 00:51:40;;;;;;;3.08;2.40;;;22.40;77.10;;;;;;5014347;28;20030;-69
2022/07/04 00:54:08;;;;;;;3.70;2.20;;;22.40;77.20;;;;;;5027382;28;20080;-68
2022/07/04 00:56:39;;;;;;;2.72;2.30;;;22.40;77.20;;;;;;5015054;28;20367;-68
2022/07/04 00:59:06;;;;;;;4.82;2.28;;;22.40;77.70;;;;;;5022689;28;20029;-69
2022/07/04 01:01:32;;;;;;;3.38;2.40;;;22.30;78.00;;;;;;5029998;28;20392;-69
2022/07/04 01:03:58;;;;;;;4.47;2.33;;;22.20;78.30;;;;;;5027251;28;20037;-70
2022/07/04 01:06:24;;;;;;;3.13;2.20;;;22.20;78.40;;;;;;5032525;28;20021;-69
2022/07/04 01:08:49;;;;;;;3.28;2.35;;;22.10;78.60;;;;;;5025235;28;20504;-69
2022/07/04 01:11:16;;;;;;;4.18;2.72;;;22.10;78.60;;;;;;5028857;28;20077;-69
2022/07/04 01:13:42;;;;;;;4.28;2.10;;;22.10;79.00;;;;;;5018206;28;20053;-69
2022/07/04 01:16:09;;;;;;;3.42;2.20;;;22.10;79.20;;;;;;5028100;28;20040;-69
2022/07/04 01:18:36;;;;;;;3.30;2.28;;;22.10;79.40;;;;;;5030729;28;20040;-69
2022/07/04 01:21:02;;;;;;;3.70;2.70;;;22.10;79.50;;;;;;5031369;28;20045;-70
2022/07/04 01:23:27;;;;;;;4.18;2.42;;;22.00;79.90;;;;;;5029927;28;20033;-70
2022/07/04 01:25:53;;;;;;;3.33;2.25;;;22.00;80.30;;;;;;5030532;28;20472;-69
2022/07/04 01:28:20;;;;;;;3.90;2.30;;;21.90;80.60;;;;;;5030376;28;20104;-69
2022/07/04 01:30:45;;;;;;;2.95;2.45;;;21.90;81.20;;;;;;5023338;28;20032;-69
2022/07/04 01:33:11;;;;;;;3.20;2.50;;;21.90;81.40;;;;;;5019964;28;20096;-69
2022/07/04 01:35:36;;;;;;;3.95;2.40;;;21.80;81.70;;;;;;5031193;28;20018;-69
2022/07/04 01:38:02;;;;;;;3.22;2.60;;;21.80;81.80;;;;;;5027571;28;20025;-69
2022/07/04 01:40:28;;;;;;;2.97;2.30;;;21.80;81.90;;;;;;5027059;28;20397;-69
2022/07/04 01:42:53;;;;;;;2.50;2.30;;;21.70;82.10;;;;;;5011315;28;20401;-69
2022/07/04 01:45:19;;;;;;;4.43;2.70;;;21.70;82.30;;;;;;5031416;28;20395;-68
2022/07/04 01:47:45;;;;;;;4.47;2.45;;;21.70;82.90;;;;;;5030345;28;20018;-68
2022/07/04 01:50:14;;;;;;;3.97;2.50;;;21.70;82.90;;;;;;5029958;28;20068;-69
2022/07/04 01:52:40;;;;;;;2.80;2.13;;;21.60;83.50;;;;;;5029334;28;20021;-69
2022/07/04 01:55:10;;;;;;;2.50;2.10;;;21.60;84.00;;;;;;5030778;28;20120;-69
2022/07/04 01:57:36;;;;;;;3.25;2.50;;;21.50;83.90;;;;;;5020389;28;20025;-69
2022/07/04 02:02:49;;;;;;;3.30;2.70;;;21.50;84.70;;;;;;5022371;28;20052;-69
2022/07/04 02:05:15;;;;;;;4.15;3.22;;;21.40;84.90;;;;;;5029021;28;20389;-69
2022/07/04 02:07:40;;;;;;;3.92;2.50;;;21.40;85.70;;;;;;5021367;28;20036;-68
2022/07/04 02:10:06;;;;;;;6.65;3.13;;;21.30;86.80;;;;;;5030492;28;20408;-68
2022/07/04 02:15:16;;;;;;;11.20;3.28;;;21.20;87.30;;;;;;5032161;28;20036;-69
2022/07/04 02:17:41;;;;;;;4.40;2.92;;;21.20;87.80;;;;;;5028582;28;20029;-68
2022/07/04 02:20:07;;;;;;;4.15;3.30;;;21.10;88.30;;;;;;5030900;28;20075;-69
2022/07/04 02:22:33;;;;;;;4.32;3.78;;;21.10;89.20;;;;;;5021352;28;20025;-68
2022/07/04 02:24:58;;;;;;;4.40;3.53;;;21.00;90.10;;;;;;5031882;28;20472;-69
2022/07/04 02:27:24;;;;;;;4.68;3.80;;;21.00;90.40;;;;;;5022047;28;20466;-69
2022/07/04 02:29:50;;;;;;;5.38;3.90;;;20.90;91.30;;;;;;5026598;28;20399;-68
2022/07/04 02:32:15;;;;;;;5.38;4.18;;;20.70;92.00;;;;;;5021906;28;20083;-68
2022/07/04 02:34:41;;;;;;;5.70;4.47;;;20.60;92.40;;;;;;5032810;28;20031;-68
2022/07/04 02:37:07;;;;;;;5.10;4.55;;;20.60;93.00;;;;;;5031852;28;20535;-68
2022/07/04 02:39:32;;;;;;;5.25;4.72;;;20.50;93.30;;;;;;5033093;28;20037;-69
2022/07/04 02:41:58;;;;;;;7.47;5.32;;;20.50;93.50;;;;;;5020246;28;20473;-69
2022/07/04 02:44:24;;;;;;;5.32;4.75;;;20.40;94.20;;;;;;5035026;28;20392;-68
2022/07/04 02:46:49;;;;;;;7.18;5.18;;;20.40;94.10;;;;;;5018609;28;20030;-69
2022/07/04 02:49:15;;;;;;;5.55;4.90;;;20.30;94.60;;;;;;5035106;28;20125;-68
2022/07/04 02:51:41;;;;;;;5.88;5.28;;;20.30;94.70;;;;;;5019854;28;20108;-69
2022/07/04 02:54:07;;;;;;;6.38;5.30;;;20.30;94.90;;;;;;5034476;28;20025;-69
2022/07/04 02:56:33;;;;;;;4.78;4.30;;;20.20;95.20;;;;;;5023173;28;20080;-69
2022/07/04 02:58:58;;;;;;;6.75;5.07;;;20.20;95.10;;;;;;5034391;28;20500;-68
2022/07/04 03:01:24;;;;;;;7.38;5.20;;;20.20;95.40;;;;;;5033855;28;20033;-68
2022/07/04 03:03:49;;;;;;;6.10;5.10;;;20.20;95.40;;;;;;5034528;28;20106;-68
2022/07/04 03:06:15;;;;;;;7.80;5.95;;;20.20;95.50;;;;;;5034201;28;20025;-68
2022/07/04 03:08:41;;;;;;;5.80;5.05;;;20.20;95.60;;;;;;5032518;28;20457;-68
2022/07/04 03:11:07;;;;;;;6.07;5.13;;;20.10;95.70;;;;;;5017279;28;20026;-68
2022/07/04 03:13:32;;;;;;;6.35;5.75;;;20.10;95.90;;;;;;5031032;28;20029;-69
2022/07/04 03:15:58;;;;;;;6.65;5.78;;;20.10;96.10;;;;;;5032275;28;20140;-69
2022/07/04 03:18:24;;;;;;;6.60;5.78;;;20.10;96.20;;;;;;5033330;28;20485;-69
2022/07/04 03:20:49;;;;;;;6.35;5.75;;;20.10;96.20;;;;;;5027604;28;20030;-69
2022/07/04 03:23:15;;;;;;;6.45;5.32;;;20.10;96.20;;;;;;5027001;28;20473;-69
2022/07/04 03:25:41;;;;;;;6.03;5.38;;;20.10;96.30;;;;;;5027444;28;20037;-69
2022/07/04 03:28:06;;;;;;;9.35;6.25;;;20.10;96.30;;;;;;5026827;28;20080;-70
2022/07/04 03:30:33;;;;;;;6.20;4.82;;;20.10;96.40;;;;;;5023547;28;20493;-69
2022/07/04 03:32:59;;;;;;;8.60;5.85;;;20.10;96.40;;;;;;5030506;28;20027;-69
2022/07/04 03:35:25;;;;;;;6.18;5.38;;;20.10;96.50;;;;;;5034504;28;20087;-70
2022/07/04 03:37:51;;;;;;;8.40;5.97;;;20.20;96.50;;;;;;5033085;28;20033;-69
2022/07/04 03:40:18;;;;;;;7.57;6.07;;;20.20;96.60;;;;;;5027651;28;20026;-69
2022/07/04 03:42:44;;;;;;;6.38;5.45;;;20.20;96.60;;;;;;5030914;28;20129;-69
2022/07/04 03:45:10;;;;;;;6.55;5.35;;;20.20;96.70;;;;;;5028664;28;20521;-69
2022/07/04 03:47:35;;;;;;;6.57;5.45;;;20.20;96.70;;;;;;5023502;28;20114;-69
2022/07/04 03:50:01;;;;;;;7.72;5.60;;;20.20;96.80;;;;;;5030358;28;20429;-69
2022/07/04 03:52:27;;;;;;;7.05;6.32;;;20.20;96.90;;;;;;5021994;28;20053;-69
2022/07/04 03:54:53;;;;;;;7.35;5.47;;;20.20;97.10;;;;;;5032798;28;20056;-67
2022/07/04 03:57:19;;;;;;;7.28;6.03;;;20.20;97.10;;;;;;5030958;28;20055;-68
2022/07/04 03:59:44;;;;;;;8.27;6.53;;;20.20;97.10;;;;;;5031554;28;20120;-67
2022/07/04 04:02:10;;;;;;;8.82;6.60;;;20.30;97.10;;;;;;5017865;28;20030;-68
2022/07/04 04:07:20;;;;;;;6.68;5.88;;;20.20;97.20;;;;;;5021480;28;20025;-68
2022/07/04 04:09:45;;;;;;;7.65;5.70;;;20.20;97.20;;;;;;5032110;28;20511;-68
2022/07/04 04:12:11;;;;;;;8.35;5.72;;;20.30;97.20;;;;;;5019834;28;20037;-70
2022/07/04 04:14:37;;;;;;;7.75;6.40;;;20.40;97.20;;;;;;5033334;28;20021;-68
2022/07/04 04:17:03;;;;;;;5.88;5.00;;;20.40;97.10;;;;;;5024189;28;20025;-68
2022/07/04 04:19:29;;;;;;;7.97;5.72;;;20.50;97.10;;;;;;5033027;28;20078;-68
2022/07/04 04:21:55;;;;;;;7.90;5.88;;;20.50;97.00;;;;;;5020970;28;20104;-69
2022/07/04 04:24:20;;;;;;;6.30;5.40;;;20.60;97.00;;;;;;5033696;28;20026;-67
2022/07/04 04:26:46;;;;;;;8.45;6.05;;;20.70;97.00;;;;;;5028480;28;20036;-76
2022/07/04 04:29:11;;;;;;;7.00;5.90;;;20.70;97.00;;;;;;5032968;28;20164;-73
2022/07/04 04:31:37;;;;;;;5.65;4.90;;;20.80;97.10;;;;;;5029417;28;20474;-75
2022/07/04 04:34:02;;;;;;;6.43;5.40;;;20.80;96.80;;;;;;5023217;28;20109;-74
2022/07/04 04:36:28;;;;;;;8.50;5.78;;;20.90;96.70;;;;;;5028167;28;20026;-70
2022/07/04 04:38:54;;;;;;;8.15;5.47;;;20.90;96.70;;;;;;5027034;28;20099;-72
2022/07/04 04:41:19;;;;;;;6.80;5.55;;;20.80;96.70;;;;;;5029687;28;20017;-71
2022/07/04 04:43:45;;;;;;;7.82;6.25;;;20.80;96.80;;;;;;5033051;28;20118;-69
2022/07/04 04:46:11;;;;;;;6.97;5.53;;;20.80;96.80;;;;;;5031127;28;20033;-71
2022/07/04 04:48:36;;;;;;;7.65;6.45;;;20.90;96.80;;;;;;5026564;28;20037;-70
2022/07/04 04:51:02;;;;;;;6.80;5.85;;;20.90;96.80;;;;;;5032570;28;20030;-69
2022/07/04 04:53:27;;;;;;;6.15;5.55;;;20.90;96.70;;;;;;5027030;28;20030;-69
2022/07/04 04:55:53;;;;;;;7.47;5.47;;;20.90;96.70;;;;;;5025258;28;20500;-68
2022/07/04 04:58:20;;;;;;;6.25;5.60;;;21.00;96.70;;;;;;5025259;28;20045;-68
2022/07/04 05:00:45;;;;;;;7.32;6.10;;;21.00;96.60;;;;;;5027157;28;20033;-68
2022/07/04 05:03:11;;;;;;;7.32;5.60;;;21.00;96.50;;;;;;5030127;28;20030;-68
2022/07/04 05:05:37;;;;;;;6.60;5.45;;;21.10;96.40;;;;;;5032077;28;20374;-68
2022/07/04 05:08:02;;;;;;;7.80;5.30;;;21.10;96.30;;;;;;5027190;28;20037;-68
2022/07/04 05:10:28;;;;;;;6.18;5.13;;;21.20;96.30;;;;;;5012462;28;20449;-67
2022/07/04 05:12:55;;;;;;;6.82;5.35;;;21.20;96.20;;;;;;5023525;28;20022;-68
2022/07/04 05:15:20;;;;;;;6.07;4.85;;;21.30;96.20;;;;;;5032244;28;20101;-67
2022/07/04 05:17:46;;;;;;;5.35;4.65;;;21.40;96.10;;;;;;5030046;28;20116;-68
2022/07/04 05:20:11;;;;;;;6.20;4.85;;;21.50;95.90;;;;;;5032245;28;20477;-68
2022/07/04 05:22:37;;;;;;;5.43;4.50;;;21.60;95.80;;;;;;5031143;28;20526;-67
2022/07/04 05:25:03;;;;;;;5.30;4.80;;;21.60;95.70;;;;;;5014274;28;20458;-69
2022/07/04 05:27:30;;;;;;;6.97;4.90;;;21.70;95.50;;;;;;5019729;28;20041;-71
2022/07/04 05:29:56;;;;;;;6.03;4.53;;;21.70;95.30;;;;;;5026178;28;20446;-70
2022/07/04 05:32:22;;;;;;;6.05;4.45;;;21.70;95.30;;;;;;5030215;28;20034;-70
2022/07/04 05:34:48;;;;;;;5.40;4.43;;;21.60;95.20;;;;;;5029716;28;20160;-71
2022/07/04 05:37:13;;;;;;;4.40;4.00;;;21.50;95.20;;;;;;5028578;28;20507;-70
2022/07/04 05:39:39;;;;;;;6.88;5.05;;;21.60;95.10;;;;;;5013693;28;20478;-68
2022/07/04 05:42:04;;;;;;;4.93;3.78;;;21.50;95.00;;;;;;5022169;28;20022;-70
2022/07/04 05:44:30;;;;;;;4.15;3.70;;;21.50;95.00;;;;;;5029511;28;20036;-70
2022/07/04 05:46:55;;;;;;;4.43;3.50;;;21.50;94.90;;;;;;5028515;28;20540;-70
2022/07/04 05:49:21;;;;;;;5.38;3.50;;;21.40;94.80;;;;;;5030077;28;20048;-70
2022/07/04 05:51:47;;;;;;;5.68;4.03;;;21.30;94.80;;;;;;5028089;28;20026;-70
2022/07/04 05:54:12;;;;;;;11.90;3.47;;;21.30;94.80;;;;;;5027724;28;20026;-70
2022/07/04 05:56:39;;;;;;;3.83;3.05;;;21.40;95.00;;;;;;5029248;28;20026;-70
2022/07/04 05:59:05;;;;;;;4.28;2.75;;;21.50;94.90;;;;;;5030758;28;20179;-70
2022/07/04 06:01:30;;;;;;;5.95;3.10;;;21.60;94.70;;;;;;5027417;28;20222;-70
2022/07/04 06:03:56;;;;;;;6.03;3.08;;;21.60;94.40;;;;;;5027248;28;20048;-70
2022/07/04 06:06:21;;;;;;;5.95;3.10;;;21.60;94.10;;;;;;5027854;28;20036;-71
2022/07/04 06:08:47;;;;;;;7.07;3.92;;;21.60;94.00;;;;;;5027716;28;20129;-70
2022/07/04 06:11:14;;;;;;;6.43;3.00;;;21.60;94.10;;;;;;5029825;28;20017;-70
2022/07/04 06:13:39;;;;;;;3.80;3.00;;;21.50;94.00;;;;;;5027240;28;20033;-71
2022/07/04 06:16:05;;;;;;;5.43;3.08;;;21.50;93.90;;;;;;5017971;28;20032;-70
2022/07/04 06:18:33;;;;;;;3.67;2.58;;;21.50;93.90;;;;;;5028362;28;20029;-70
2022/07/04 06:20:59;;;;;;;7.60;3.53;;;21.50;93.80;;;;;;5014868;28;20022;-70
2022/07/04 06:23:24;;;;;;;4.22;2.75;;;21.50;93.60;;;;;;5019234;28;20017;-70
2022/07/04 06:25:50;;;;;;;4.95;2.72;;;21.50;93.70;;;;;;5018237;28;20129;-70
2022/07/04 06:28:17;;;;;;;3.47;2.42;;;21.50;93.60;;;;;;5033161;28;20095;-70
2022/07/04 06:30:42;;;;;;;4.35;2.17;;;21.60;93.40;;;;;;5016777;28;20069;-71
2022/07/04 06:33:08;;;;;;;3.58;2.38;;;21.60;93.30;;;;;;5030042;28;20029;-71
2022/07/04 06:35:45;;;;;;;4.78;2.25;;;21.70;93.00;;;;;;5030442;28;20044;-70
2022/07/04 06:38:21;;;;;;;3.40;2.00;;;21.70;93.00;;;;;;5024908;28;20105;-70
2022/07/04 06:40:48;;;;;;;3.92;2.53;;;21.70;92.50;;;;;;5030536;28;20100;-70
2022/07/04 06:43:14;;;;;;;3.75;2.13;;;21.70;92.30;;;;;;5027101;28;20029;-70
2022/07/04 06:45:39;;;;;;;5.97;2.20;;;21.80;92.20;;;;;;5029467;28;20031;-70
2022/07/04 06:48:06;;;;;;;2.35;1.70;;;21.80;92.10;;;;;;5028232;28;20022;-70
2022/07/04 06:50:32;;;;;;;3.72;2.05;;;21.80;91.70;;;;;;5028196;28;20489;-70
2022/07/04 06:53:03;;;;;;;4.10;2.00;;;21.90;91.80;;;;;;5026094;28;20040;-69
2022/07/04 06:55:29;;;;;;;2.63;1.50;;;21.80;91.50;;;;;;5026959;28;20064;-69
2022/07/04 06:57:55;;;;;;;3.03;1.85;;;21.80;91.10;;;;;;5028467;28;20061;-70
2022/07/04 07:00:20;;;;;;;3.30;1.60;;;21.80;91.00;;;;;;5020050;28;20442;-67
2022/07/04 07:02:46;;;;;;;3.65;2.00;;;21.90;90.90;;;;;;5024958;28;20056;-70
2022/07/04 07:05:11;;;;;;;2.42;1.73;;;21.90;90.80;;;;;;5028936;28;20034;-71
2022/07/04 07:07:37;;;;;;;2.75;1.88;;;22.00;90.40;;;;;;5025252;28;20060;-70
2022/07/04 07:10:03;;;;;;;3.72;1.60;;;22.00;90.50;;;;;;5024096;28;20437;-71
2022/07/04 07:12:29;;;;;;;1.88;1.60;;;22.10;90.10;;;;;;5023772;28;20033;-67
2022/07/04 07:14:54;;;;;;;2.25;1.50;;;22.10;90.10;;;;;;5029808;28;20026;-66
2022/07/04 07:17:20;;;;;;;3.08;1.40;;;22.20;89.70;;;;;;5031447;28;20381;-66
2022/07/04 07:19:46;;;;;;;4.13;1.55;;;22.20;90.00;;;;;;5027300;28;20057;-66
2022/07/04 07:22:13;;;;;;;2.40;1.52;;;22.20;88.60;;;;;;5023410;28;20028;-65
2022/07/04 07:24:39;;;;;;;2.75;1.45;;;22.30;89.10;;;;;;5031918;28;20083;-67
2022/07/04 07:27:05;;;;;;;3.13;1.48;;;22.30;88.50;;;;;;5032005;28;20036;-66
2022/07/04 07:29:31;;;;;;;3.65;1.75;;;22.40;88.50;;;;;;5030982;28;20496;-66
2022/07/04 07:31:56;;;;;;;5.10;1.60;;;22.50;88.20;;;;;;5024283;28;20031;-66
2022/07/04 07:34:22;;;;;;;1.98;1.45;;;22.60;88.10;;;;;;5027768;28;20049;-66
2022/07/04 07:36:48;;;;;;;4.95;1.58;;;22.70;87.50;;;;;;5031665;28;20033;-65
2022/07/04 07:39:13;;;;;;;2.20;1.40;;;22.70;86.50;;;;;;5031222;28;20493;-66
2022/07/04 07:41:39;;;;;;;1.40;1.10;;;22.80;86.20;;;;;;5031778;28;20030;-66
2022/07/04 07:44:05;;;;;;;1.67;1.25;;;23.00;84.60;;;;;;5031798;28;20049;-65
2022/07/04 07:46:30;;;;;;;2.53;1.35;;;23.20;83.50;;;;;;5030150;28;20048;-67
2022/07/04 07:48:56;;;;;;;3.20;1.35;;;23.30;82.90;;;;;;5027586;28;20079;-66
2022/07/04 07:51:22;;;;;;;3.50;1.48;;;23.40;82.60;;;;;;5022535;28;20081;-67
2022/07/04 07:53:47;;;;;;;1.77;1.30;;;23.60;83.20;;;;;;5032910;28;20029;-67
2022/07/04 07:56:13;;;;;;;2.38;1.20;;;23.60;82.70;;;;;;5033147;28;20028;-67
2022/07/04 07:58:38;;;;;;;2.88;1.30;;;23.70;81.80;;;;;;5017030;28;20057;-67
2022/07/04 08:01:04;;;;;;;3.35;1.27;;;23.80;80.40;;;;;;5033537;28;20026;-66
2022/07/04 08:06:14;;;;;;;1.90;1.40;;;23.90;80.30;;;;;;5028789;28;20030;-66
2022/07/04 08:08:44;;;;;;;1.40;1.20;;;23.90;79.40;;;;;;5030677;28;20037;-66
2022/07/04 08:11:10;;;;;;;3.05;1.63;;;23.90;79.30;;;;;;5028170;28;20422;-65
2022/07/04 08:13:36;;;;;;;2.88;1.13;;;23.90;78.90;;;;;;5024937;28;20040;-65
2022/07/04 08:16:01;;;;;;;3.45;1.33;;;24.00;78.50;;;;;;5026819;28;20552;-66
2022/07/04 08:18:27;;;;;;;1.35;1.05;;;24.00;78.90;;;;;;5030290;28;20201;-65
2022/07/04 08:20:53;;;;;;;2.42;1.20;;;24.10;78.10;;;;;;5019029;28;20030;-65
2022/07/04 08:23:18;;;;;;;2.08;1.20;;;24.20;77.60;;;;;;5030056;28;20374;-65
2022/07/04 08:25:44;;;;;;;1.95;1.10;;;24.30;77.00;;;;;;5030381;28;20408;-66
2022/07/04 08:28:09;;;;;;;4.13;1.50;;;24.30;76.70;;;;;;5021064;28;20022;-65
2022/07/04 08:30:35;;;;;;;2.28;1.27;;;24.30;76.10;;;;;;5028180;28;20037;-66
2022/07/04 08:33:01;;;;;;;2.38;1.15;;;24.30;75.50;;;;;;5028146;28;20087;-66
2022/07/04 08:35:27;;;;;;;4.85;1.67;;;24.20;75.50;;;;;;5014864;28;20038;-65
2022/07/04 08:37:55;;;;;;;2.00;1.27;;;24.20;74.80;;;;;;5026049;28;20573;-65
2022/07/04 08:40:25;;;;;;;2.38;1.23;;;24.20;74.70;;;;;;5026213;28;20038;-68
2022/07/04 08:42:50;;;;;;;2.83;1.50;;;24.20;74.90;;;;;;5027397;28;20033;-65
2022/07/04 08:45:17;;;;;;;2.80;1.23;;;24.20;74.30;;;;;;5028478;28;20452;-65
2022/07/04 08:47:44;;;;;;;4.07;1.15;;;24.10;74.20;;;;;;5028628;28;20033;-65
2022/07/04 08:50:19;;;;;;;3.30;1.10;;;24.10;74.00;;;;;;5027002;28;20095;-65
2022/07/04 08:52:58;;;;;;;2.30;1.38;;;24.10;73.90;;;;;;5028183;28;20033;-65
2022/07/04 08:58:25;;;;;;;3.85;1.40;;;24.10;74.50;;;;;;5029286;28;20034;-65
2022/07/04 09:01:05;;;;;;;3.42;1.40;;;24.10;74.60;;;;;;5031473;28;20057;-65
2022/07/04 09:03:31;;;;;;;2.63;1.25;;;24.10;73.90;;;;;;5027486;28;20045;-65
2022/07/04 09:05:58;;;;;;;2.40;1.50;;;24.00;74.00;;;;;;5031186;28;20087;-65
2022/07/04 09:08:24;;;;;;;4.35;1.20;;;24.10;73.70;;;;;;5030156;28;20374;-65
2022/07/04 09:10:51;;;;;;;2.85;1.38;;;24.20;74.00;;;;;;5014228;28;20033;-65
2022/07/04 09:13:18;;;;;;;3.75;1.30;;;24.20;74.00;;;;;;5025718;28;20022;-66
2022/07/04 09:15:46;;;;;;;3.13;1.30;;;24.20;74.60;;;;;;5030572;28;20112;-65
2022/07/04 09:18:28;;;;;;;3.92;1.10;;;24.20;74.00;;;;;;5022176;28;20018;-66
2022/07/04 09:20:56;;;;;;;2.65;1.20;;;24.20;73.10;;;;;;5031770;28;20025;-65
2022/07/04 09:23:28;;;;;;;5.18;1.45;;;24.30;71.80;;;;;;5017688;28;20114;-66
2022/07/04 09:26:26;;;;;;;4.28;1.30;;;24.30;72.50;;;;;;5029115;28;20377;-65
2022/07/04 09:28:58;;;;;;;2.55;1.50;;;24.30;72.30;;;;;;4995125;28;20116;-66
2022/07/04 09:31:29;;;;;;;2.97;1.33;;;24.30;72.20;;;;;;5029647;28;20028;-66
2022/07/04 09:34:02;;;;;;;3.30;1.48;;;24.40;71.40;;;;;;5020738;28;20106;-65
2022/07/04 09:36:33;;;;;;;1.75;1.20;;;24.30;71.10;;;;;;5030495;28;20065;-66
2022/07/04 09:39:14;;;;;;;2.53;1.23;;;24.40;70.70;;;;;;5028953;28;20040;-65
2022/07/04 09:42:00;;;;;;;1.27;1.08;;;24.30;70.50;;;;;;5028508;28;20092;-65
2022/07/04 09:44:46;;;;;;;3.20;1.35;;;24.30;71.10;;;;;;5018459;28;20033;-66
2022/07/04 09:47:27;;;;;;;3.47;1.42;;;24.30;69.40;;;;;;5026088;28;20079;-66
2022/07/04 09:50:06;;;;;;;4.75;1.20;;;24.30;69.80;;;;;;5030242;28;20068;-67
2022/07/04 09:52:43;;;;;;;3.83;1.30;;;24.40;70.20;;;;;;5025087;28;20413;-67
2022/07/04 09:55:09;;;;;;;3.35;1.33;;;24.50;70.40;;;;;;5030236;28;20064;-67
2022/07/04 09:57:34;;;;;;;3.35;1.23;;;24.60;70.50;;;;;;5020402;28;20448;-66
2022/07/04 10:00:16;;;;;;;4.43;1.60;;;24.60;69.20;;;;;;5023464;28;20427;-66
2022/07/04 10:02:44;;;;;;;3.33;1.50;;;24.70;69.90;;;;;;5028380;28;20112;-66
2022/07/04 10:05:10;;;;;;;3.53;1.50;;;24.80;69.20;;;;;;5029868;28;20041;-66
2022/07/04 10:07:40;;;;;;;2.75;1.23;;;24.90;69.30;;;;;;5027304;28;20499;-66
2022/07/04 10:10:37;;;;;;;1.83;1.30;;;24.90;68.20;;;;;;5030526;28;20057;-66
2022/07/04 10:13:05;;;;;;;2.83;1.15;;;25.10;69.10;;;;;;5025829;28;20021;-66
2022/07/04 10:15:33;;;;;;;3.35;1.30;;;25.10;68.20;;;;;;5029205;28;20104;-66
2022/07/04 10:17:59;;;;;;;2.90;1.25;;;25.10;69.00;;;;;;5027565;28;20439;-66
2022/07/04 10:20:25;;;;;;;3.50;1.25;;;25.20;68.10;;;;;;5029710;28;20112;-65
2022/07/04 10:22:51;;;;;;;2.78;1.20;;;25.30;67.60;;;;;;5028835;28;20116;-66
2022/07/04 10:25:17;;;;;;;3.38;1.27;;;25.40;67.60;;;;;;5029423;28;20056;-65
2022/07/04 10:27:44;;;;;;;2.45;1.25;;;25.40;67.90;;;;;;5025261;28;20496;-66
2022/07/04 10:30:14;;;;;;;3.80;1.55;;;25.50;66.80;;;;;;5030883;28;20120;-66
2022/07/04 10:32:43;;;;;;;1.70;1.17;;;25.60;65.60;;;;;;5029941;28;20388;-65
2022/07/04 10:35:11;;;;;;;1.55;1.02;;;25.70;65.40;;;;;;5026738;28;20117;-66
2022/07/04 10:38:07;;;;;;;1.75;1.30;;;25.90;65.60;;;;;;5016539;28;20123;-65
2022/07/04 10:40:40;;;;;;;1.45;1.33;;;26.10;65.30;;;;;;5030297;28;20366;-65
2022/07/04 10:43:30;;;;;;;5.70;1.17;;;26.20;64.80;;;;;;5022337;28;20022;-65
2022/07/04 10:45:56;;;;;;;4.00;1.25;;;26.30;64.70;;;;;;5021958;28;20448;-66
2022/07/04 10:48:25;;;;;;;4.03;1.58;;;26.30;64.20;;;;;;5025977;28;20029;-66
2022/07/04 10:51:05;;;;;;;7.78;1.83;;;26.30;63.90;;;;;;5017023;28;20045;-66
2022/07/04 10:53:32;;;;;;;2.00;1.15;;;26.30;63.90;;;;;;5023057;28;20033;-66
2022/07/04 10:56:19;;;;;;;1.85;1.08;;;26.20;63.20;;;;;;5033303;28;20452;-66
2022/07/04 10:58:45;;;;;;;3.92;1.30;;;26.30;63.70;;;;;;5033803;28;20556;-66
2022/07/04 11:01:20;;;;;;;2.78;1.10;;;26.40;63.80;;;;;;5031752;28;20554;-66
2022/07/04 11:03:47;;;;;;;1.48;1.10;;;26.40;64.10;;;;;;5026880;28;20101;-66
2022/07/04 11:06:43;;;;;;;2.08;1.40;;;26.50;63.10;;;;;;5025302;28;20030;-66
2022/07/04 11:09:25;;;;;;;1.83;1.30;;;26.60;63.20;;;;;;5025186;28;20520;-67
2022/07/04 11:11:54;;;;;;;2.58;1.40;;;26.70;63.30;;;;;;5025227;28;20437;-67
2022/07/04 11:14:37;;;;;;;2.17;1.20;;;26.80;63.40;;;;;;5033767;28;20051;-67
2022/07/04 11:17:32;;;;;;;2.05;1.38;;;26.90;62.40;;;;;;5027631;28;20619;-67
2022/07/04 11:20:03;;;;;;;4.35;1.50;;;26.90;62.20;;;;;;5022185;28;20030;-67
2022/07/04 11:22:30;;;;;;;4.97;2.58;;;26.90;62.60;;;;;;5023835;28;20481;-67
2022/07/04 11:24:56;;;;;;;1.98;1.35;;;27.00;62.20;;;;;;5033750;28;20095;-67
2022/07/04 11:27:22;;;;;;;5.70;1.65;;;27.00;60.90;;;;;;5031110;28;20033;-67
2022/07/04 11:29:53;;;;;;;3.90;1.20;;;26.90;61.60;;;;;;5030060;28;20604;-67
2022/07/04 11:32:19;;;;;;;2.80;1.20;;;26.90;61.90;;;;;;5035665;28;20026;-68
2022/07/04 11:34:46;;;;;;;3.78;1.42;;;26.80;61.10;;;;;;5029700;28;20026;-67
2022/07/04 11:37:12;;;;;;;2.10;1.42;;;26.70;61.40;;;;;;5036767;28;20029;-67
2022/07/04 11:39:38;;;;;;;3.50;1.45;;;26.70;61.50;;;;;;5027330;28;20057;-67
2022/07/04 11:45:02;;;;;;;3.67;1.13;;;26.50;61.50;;;;;;5023536;28;20110;-67
2022/07/04 11:47:43;;;;;;;4.00;1.50;;;26.50;61.40;;;;;;5022609;28;20044;-67
2022/07/04 11:50:10;;;;;;;6.68;1.60;;;26.50;61.50;;;;;;5023672;28;20397;-67
2022/07/04 11:52:43;;;;;;;3.15;1.38;;;26.50;60.70;;;;;;5020972;28;20066;-67
2022/07/04 11:55:12;;;;;;;2.85;1.50;;;26.50;61.40;;;;;;5024084;28;20128;-68
2022/07/04 11:57:48;;;;;;;3.20;1.50;;;26.50;60.70;;;;;;5010121;28;20029;-67
2022/07/04 12:00:16;;;;;;;2.30;1.10;;;26.50;61.00;;;;;;5023036;28;20064;-67
2022/07/04 12:02:42;;;;;;;2.22;1.42;;;26.50;61.10;;;;;;5029955;28;20018;-68
2022/07/04 12:05:10;;;;;;;3.60;1.20;;;26.60;61.00;;;;;;5032628;28;20037;-69
2022/07/04 12:07:38;;;;;;;2.40;1.30;;;26.60;60.10;;;;;;5023418;28;20464;-69
2022/07/04 12:10:24;;;;;;;2.40;1.30;;;26.60;59.60;;;;;;5031871;28;20061;-66
2022/07/04 12:12:58;;;;;;;3.75;1.50;;;26.60;60.20;;;;;;5023985;28;20036;-65
2022/07/04 12:15:25;;;;;;;1.77;1.13;;;26.60;59.40;;;;;;5031046;28;20025;-69
2022/07/04 12:17:54;;;;;;;2.55;1.25;;;26.70;59.20;;;;;;5027747;28;20362;-69
2022/07/04 12:20:25;;;;;;;1.70;1.20;;;26.80;59.30;;;;;;5019918;28;20033;-68
2022/07/04 12:22:52;;;;;;;2.35;1.08;;;27.00;59.30;;;;;;5028202;28;20427;-68
2022/07/04 12:25:31;;;;;;;2.10;1.23;;;27.10;58.90;;;;;;5032487;28;20068;-68
2022/07/04 12:28:03;;;;;;;2.20;1.20;;;27.20;58.70;;;;;;5033992;28;20041;-68
2022/07/04 12:30:34;;;;;;;1.48;1.10;;;27.20;58.00;;;;;;5032372;28;20073;-68
2022/07/04 12:33:09;;;;;;;4.47;1.33;;;27.30;57.90;;;;;;5023884;28;20052;-68
2022/07/04 12:35:36;;;;;;;2.65;1.38;;;27.30;57.10;;;;;;5029548;28;20026;-68
2022/07/04 12:38:04;;;;;;;3.70;1.20;;;27.30;57.00;;;;;;5027626;28;20048;-68
2022/07/04 12:40:30;;;;;;;1.70;1.00;;;27.30;57.30;;;;;;5023307;28;20025;-69
2022/07/04 12:42:56;;;;;;;2.42;1.13;;;27.30;57.20;;;;;;5025072;28;20076;-68
2022/07/04 12:45:22;;;;;;;2.55;1.40;;;27.20;57.60;;;;;;5028896;28;20025;-68
2022/07/04 12:47:48;;;;;;;1.50;1.08;;;27.30;57.20;;;;;;5024427;28;20033;-68
2022/07/04 12:50:14;;;;;;;3.78;1.60;;;27.40;56.60;;;;;;5030987;28;20064;-68
2022/07/04 12:52:42;;;;;;;1.85;1.20;;;27.40;56.40;;;;;;5027928;28;20417;-68
2022/07/04 12:55:10;;;;;;;1.88;1.17;;;27.50;56.90;;;;;;5025333;28;20033;-68
2022/07/04 12:57:36;;;;;;;1.85;1.13;;;27.60;56.20;;;;;;5030547;28;20025;-68
2022/07/04 13:00:03;;;;;;;1.90;1.20;;;27.70;56.10;;;;;;5028306;28;20033;-69
2022/07/04 13:02:28;;;;;;;2.05;1.10;;;27.70;55.40;;;;;;5029440;28;20532;-69
2022/07/04 13:04:55;;;;;;;2.70;1.13;;;27.70;55.50;;;;;;5023847;28;20036;-67
2022/07/04 13:07:20;;;;;;;1.25;0.90;;;27.80;55.60;;;;;;5032740;28;20030;-68